createdAt,value
2018-02-27T00:01:08.739Z,1.83
2018-02-27T00:03:37.231Z,1.80
2018-02-27T00:06:05.691Z,2.15
2018-02-27T00:08:34.211Z,1.00
2018-02-27T00:11:02.817Z,2.00
2018-02-27T00:13:31.375Z,1.70
2018-02-27T00:16:00.946Z,1.10
2018-02-27T00:18:30.033Z,1.30
2018-02-27T00:20:58.509Z,2.50
2018-02-27T00:23:27.187Z,1.40
2018-02-27T00:25:55.632Z,1.30
2018-02-27T00:28:24.129Z,1.30
2018-02-27T00:30:52.627Z,1.15
2018-02-27T00:33:21.077Z,1.95
2018-02-27T00:35:49.557Z,1.20
2018-02-27T00:38:18.065Z,1.80
2018-02-27T00:40:46.520Z,1.77
2018-02-27T00:43:14.935Z,1.37
2018-02-27T00:45:44.047Z,1.55
2018-02-27T00:48:12.507Z,1.65
2018-02-27T00:50:40.995Z,1.15
2018-02-27T00:53:09.518Z,2.00
2018-02-27T00:55:37.968Z,1.48
2018-02-27T00:58:06.578Z,1.23
2018-02-27T01:00:35.162Z,1.70
2018-02-27T01:03:03.709Z,1.45
2018-02-27T01:05:32.242Z,1.20
2018-02-27T01:08:00.894Z,1.12
2018-02-27T01:10:29.366Z,1.48
2018-02-27T01:12:57.841Z,1.25
2018-02-27T01:15:26.645Z,0.93
2018-02-27T01:17:55.086Z,1.35
2018-02-27T01:20:23.566Z,1.10
2018-02-27T01:22:52.076Z,1.20
2018-02-27T01:25:20.522Z,1.00
2018-02-27T01:27:48.950Z,1.00
2018-02-27T01:30:17.416Z,1.33
2018-02-27T01:32:45.864Z,0.88
2018-02-27T01:35:14.310Z,1.25
2018-02-27T01:37:43.796Z,1.30
2018-02-27T01:40:12.232Z,1.00
2018-02-27T01:42:40.672Z,1.42
2018-02-27T01:45:09.150Z,1.10
2018-02-27T01:47:37.681Z,1.20
2018-02-27T01:50:06.158Z,1.05
2018-02-27T01:52:34.698Z,1.25
2018-02-27T01:55:03.152Z,0.90
2018-02-27T01:57:31.660Z,1.20
2018-02-27T02:00:00.191Z,1.33
2018-02-27T02:02:28.624Z,0.90
2018-02-27T02:04:57.090Z,0.90
2018-02-27T02:07:25.692Z,1.08
2018-02-27T02:09:54.159Z,1.37
2018-02-27T02:12:22.581Z,1.10
2018-02-27T02:14:51.038Z,1.00
2018-02-27T02:17:19.528Z,1.62
2018-02-27T02:19:47.970Z,1.17
2018-02-27T02:22:16.450Z,1.20
2018-02-27T02:24:44.942Z,1.33
2018-02-27T02:27:13.724Z,1.20
2018-02-27T02:29:42.186Z,1.15
2018-02-27T02:32:10.594Z,1.15
2018-02-27T02:34:39.102Z,1.50
2018-02-27T02:37:07.650Z,1.15
2018-02-27T02:39:36.107Z,1.15
2018-02-27T02:42:22.526Z,1.25
2018-02-27T02:44:51.961Z,1.45
2018-02-27T02:47:20.519Z,0.90
2018-02-27T02:49:49.008Z,1.15
2018-02-27T02:52:17.476Z,0.75
2018-02-27T02:54:46.055Z,1.33
2018-02-27T02:57:14.534Z,0.90
2018-02-27T02:59:43.033Z,0.93
2018-02-27T03:02:11.460Z,1.23
2018-02-27T03:04:39.965Z,0.82
2018-02-27T03:07:08.390Z,0.80
2018-02-27T03:09:36.913Z,0.85
2018-02-27T03:12:05.756Z,1.58
2018-02-27T03:14:34.330Z,0.90
2018-02-27T03:17:02.776Z,0.93
2018-02-27T03:19:31.338Z,0.70
2018-02-27T03:21:59.951Z,0.90
2018-02-27T03:24:28.430Z,1.00
2018-02-27T03:26:56.920Z,0.68
2018-02-27T03:29:25.352Z,1.12
2018-02-27T03:31:53.773Z,0.90
2018-02-27T03:34:22.318Z,0.80
2018-02-27T03:36:52.715Z,0.80
2018-02-27T03:39:21.196Z,0.68
2018-02-27T03:41:49.753Z,0.90
2018-02-27T03:44:18.222Z,1.45
2018-02-27T03:46:46.696Z,0.93
2018-02-27T03:49:15.143Z,0.85
2018-02-27T03:51:43.567Z,0.82
2018-02-27T03:54:12.014Z,0.88
2018-02-27T03:56:40.607Z,0.95
2018-02-27T03:59:09.093Z,0.80
2018-02-27T04:01:37.620Z,0.95
2018-02-27T04:04:06.523Z,0.70
2018-02-27T04:06:35.167Z,1.00
2018-02-27T04:09:03.783Z,0.98
2018-02-27T04:11:32.290Z,1.25
2018-02-27T04:14:00.878Z,1.10
2018-02-27T04:16:29.425Z,1.40
2018-02-27T04:18:58.354Z,0.90
2018-02-27T04:21:26.875Z,0.90
2018-02-27T04:23:55.355Z,1.25
2018-02-27T04:26:23.810Z,1.20
2018-02-27T04:28:52.283Z,1.05
2018-02-27T04:31:20.704Z,0.82
2018-02-27T04:33:49.182Z,0.90
2018-02-27T04:36:17.618Z,1.25
2018-02-27T04:38:46.129Z,1.00
2018-02-27T04:41:14.690Z,1.00
2018-02-27T04:43:43.150Z,1.12
2018-02-27T04:46:11.604Z,1.05
2018-02-27T04:48:40.451Z,0.85
2018-02-27T04:51:09.018Z,0.90
2018-02-27T04:53:37.500Z,1.02
2018-02-27T04:56:06.393Z,1.00
2018-02-27T04:58:34.982Z,1.00
2018-02-27T05:01:03.507Z,0.80
2018-02-27T05:03:32.090Z,0.98
2018-02-27T05:06:00.638Z,1.05
2018-02-27T05:08:29.218Z,0.90
2018-02-27T05:10:57.894Z,0.98
2018-02-27T05:13:26.387Z,1.15
2018-02-27T05:15:54.816Z,1.00
2018-02-27T05:18:23.421Z,2.65
2018-02-27T05:20:52.336Z,1.10
2018-02-27T05:23:20.773Z,1.08
2018-02-27T05:25:49.387Z,1.08
2018-02-27T05:28:20.078Z,1.02
2018-02-27T05:30:48.539Z,1.10
2018-02-27T05:33:17.016Z,1.05
2018-02-27T05:35:45.494Z,0.88
2018-02-27T05:38:13.931Z,1.05
2018-02-27T05:40:42.559Z,1.00
2018-02-27T05:43:11.890Z,1.25
2018-02-27T05:45:40.343Z,1.10
2018-02-27T05:48:08.839Z,0.80
2018-02-27T05:50:37.360Z,1.45
2018-02-27T05:53:05.844Z,1.25
2018-02-27T05:55:34.384Z,1.25
2018-02-27T05:58:02.851Z,1.25
2018-02-27T06:00:31.457Z,1.40
2018-02-27T06:03:00.583Z,1.65
2018-02-27T06:05:29.019Z,1.20
2018-02-27T06:07:57.536Z,1.45
2018-02-27T06:10:26.251Z,1.48
2018-02-27T06:12:54.783Z,1.10
2018-02-27T06:15:23.203Z,1.62
2018-02-27T06:17:51.731Z,0.90
2018-02-27T06:20:20.198Z,0.93
2018-02-27T06:22:48.733Z,1.50
2018-02-27T06:25:17.489Z,1.48
2018-02-27T06:27:47.268Z,1.42
2018-02-27T06:30:15.714Z,1.42
2018-02-27T06:32:44.596Z,2.05
2018-02-27T06:35:13.182Z,1.90
2018-02-27T06:37:41.688Z,1.52
2018-02-27T06:40:10.244Z,1.40
2018-02-27T06:42:38.712Z,2.33
2018-02-27T06:45:07.513Z,1.50
2018-02-27T06:47:36.497Z,1.58
2018-02-27T06:50:05.000Z,1.67
2018-02-27T06:52:33.573Z,2.17
2018-02-27T06:55:03.077Z,1.25
2018-02-27T06:57:31.621Z,1.60
2018-02-27T07:00:00.119Z,1.55
2018-02-27T07:02:28.622Z,1.48
2018-02-27T07:04:57.087Z,1.30
2018-02-27T07:07:25.649Z,1.17
2018-02-27T07:09:54.150Z,1.30
2018-02-27T07:12:28.260Z,1.00
2018-02-27T07:14:56.846Z,2.35
2018-02-27T07:17:25.339Z,0.90
2018-02-27T07:19:53.823Z,1.05
2018-02-27T07:22:22.797Z,1.48
2018-02-27T07:24:51.219Z,1.55
2018-02-27T07:27:19.703Z,1.70
2018-02-27T07:29:48.243Z,2.35
2018-02-27T07:32:16.722Z,1.62
2018-02-27T07:34:45.202Z,1.90
2018-02-27T07:37:14.091Z,2.00
2018-02-27T07:39:42.575Z,1.60
2018-02-27T07:42:11.056Z,1.77
2018-02-27T07:44:39.576Z,1.77
2018-02-27T07:47:08.136Z,1.30
2018-02-27T07:49:36.591Z,2.20
2018-02-27T07:52:05.480Z,1.70
2018-02-27T07:54:34.014Z,1.95
2018-02-27T07:57:02.515Z,2.00
2018-02-27T07:59:31.124Z,1.37
2018-02-27T08:01:59.762Z,1.00
2018-02-27T08:04:28.195Z,2.45
2018-02-27T08:06:57.651Z,1.35
2018-02-27T08:09:27.134Z,1.75
2018-02-27T08:11:55.583Z,2.58
2018-02-27T08:14:24.064Z,2.80
2018-02-27T08:16:52.544Z,1.62
2018-02-27T08:19:21.031Z,1.90
2018-02-27T08:21:50.128Z,1.33
2018-02-27T08:24:20.754Z,1.65
2018-02-27T08:26:49.228Z,1.30
2018-02-27T08:29:17.725Z,3.08
2018-02-27T08:31:46.707Z,1.20
2018-02-27T08:34:15.166Z,1.70
2018-02-27T08:36:43.801Z,1.80
2018-02-27T08:39:12.234Z,1.48
2018-02-27T08:41:40.742Z,1.58
2018-02-27T08:44:10.442Z,1.80
2018-02-27T08:46:38.969Z,1.87
2018-02-27T08:49:07.621Z,1.60
2018-02-27T08:51:36.477Z,2.50
2018-02-27T08:54:04.997Z,1.77
2018-02-27T08:56:33.493Z,1.60
2018-02-27T08:59:01.975Z,1.80
2018-02-27T09:01:30.444Z,2.12
2018-02-27T09:03:58.899Z,1.40
2018-02-27T09:06:28.669Z,1.12
2018-02-27T09:08:57.069Z,1.48
2018-02-27T09:11:25.498Z,1.42
2018-02-27T09:13:54.745Z,1.50
2018-02-27T09:16:23.162Z,1.75
2018-02-27T09:18:58.594Z,2.05
2018-02-27T09:21:27.007Z,1.20
2018-02-27T09:23:55.452Z,1.10
2018-02-27T09:26:24.210Z,1.55
2018-02-27T09:28:52.633Z,1.23
2018-02-27T09:31:21.118Z,0.60
2018-02-27T09:33:50.391Z,0.85
2018-02-27T09:36:18.855Z,0.90
2018-02-27T09:38:47.335Z,1.02
2018-02-27T09:41:16.627Z,1.10
2018-02-27T09:43:45.076Z,1.17
2018-02-27T09:46:13.494Z,1.15
2018-02-27T09:48:42.068Z,1.20
2018-02-27T09:51:10.489Z,1.05
2018-02-27T09:53:38.936Z,1.00
2018-02-27T09:56:08.023Z,1.10
2018-02-27T09:58:36.477Z,1.10
2018-02-27T10:01:05.025Z,0.88
2018-02-27T10:03:33.693Z,0.85
2018-02-27T10:06:02.208Z,1.20
2018-02-27T10:08:30.969Z,1.12
2018-02-27T10:10:59.541Z,0.90
2018-02-27T10:13:31.002Z,0.70
2018-02-27T10:15:59.698Z,0.60
2018-02-27T10:18:28.152Z,1.30
2018-02-27T10:20:56.577Z,0.75
2018-02-27T10:23:25.012Z,1.00
2018-02-27T10:25:53.947Z,0.98
2018-02-27T10:28:22.391Z,1.27
2018-02-27T10:30:50.941Z,1.33
2018-02-27T10:33:19.425Z,0.80
2018-02-27T10:35:48.350Z,1.17
2018-02-27T10:38:16.789Z,1.27
2018-02-27T10:40:45.268Z,1.58
2018-02-27T10:43:13.806Z,0.90
2018-02-27T10:45:42.380Z,1.02
2018-02-27T10:48:10.985Z,0.80
2018-02-27T10:50:39.607Z,1.00
2018-02-27T10:53:08.149Z,1.45
2018-02-27T10:55:37.146Z,1.25
2018-02-27T10:58:05.627Z,1.42
2018-02-27T11:00:40.992Z,0.90
2018-02-27T11:03:09.555Z,0.80
2018-02-27T11:05:38.060Z,1.52
2018-02-27T11:08:06.588Z,0.93
2018-02-27T11:10:35.074Z,0.80
2018-02-27T11:13:03.653Z,0.90
2018-02-27T11:15:33.083Z,1.12
2018-02-27T11:18:01.587Z,1.15
2018-02-27T11:20:30.073Z,0.90
2018-02-27T11:22:58.860Z,1.35
2018-02-27T11:25:27.305Z,1.08
2018-02-27T11:27:55.743Z,1.05
2018-02-27T11:30:24.248Z,1.00
2018-02-27T11:32:53.198Z,0.90
2018-02-27T11:35:21.613Z,1.08
2018-02-27T11:37:50.226Z,0.90
2018-02-27T11:40:18.704Z,0.95
2018-02-27T11:42:47.146Z,1.00
2018-02-27T11:45:15.797Z,0.90
2018-02-27T11:47:44.267Z,0.85
2018-02-27T11:50:12.747Z,1.50
2018-02-27T11:52:41.311Z,1.20
2018-02-27T11:55:10.577Z,1.05
2018-02-27T11:57:39.108Z,0.85
2018-02-27T12:00:07.718Z,1.00
2018-02-27T12:02:36.300Z,1.08
2018-02-27T12:05:04.975Z,0.95
2018-02-27T12:07:33.558Z,1.17
2018-02-27T12:10:02.147Z,1.20
2018-02-27T12:12:30.733Z,1.05
2018-02-27T12:14:59.307Z,1.00
2018-02-27T12:17:27.982Z,0.90
2018-02-27T12:19:57.278Z,1.05
2018-02-27T12:22:25.777Z,1.33
2018-02-27T12:24:54.238Z,1.05
2018-02-27T12:27:24.401Z,0.90
2018-02-27T12:29:53.404Z,0.80
2018-02-27T12:32:21.894Z,1.02
2018-02-27T12:34:50.371Z,1.20
2018-02-27T12:37:18.879Z,1.00
2018-02-27T12:39:47.340Z,0.88
2018-02-27T12:42:15.846Z,1.00
2018-02-27T12:44:45.763Z,0.98
2018-02-27T12:47:14.216Z,0.90
2018-02-27T12:49:42.668Z,0.80
2018-02-27T12:52:11.182Z,0.85
2018-02-27T12:54:39.680Z,0.88
2018-02-27T12:57:08.218Z,0.95
2018-02-27T12:59:36.954Z,1.00
2018-02-27T13:02:05.497Z,0.70
2018-02-27T13:04:34.075Z,0.80
2018-02-27T13:07:03.450Z,1.20
2018-02-27T13:09:31.938Z,1.17
2018-02-27T13:12:02.326Z,0.93
2018-02-27T13:14:31.662Z,0.70
2018-02-27T13:17:00.150Z,0.70
2018-02-27T13:19:28.672Z,1.02
2018-02-27T13:21:58.022Z,0.90
2018-02-27T13:24:26.534Z,0.80
2018-02-27T13:26:54.960Z,1.02
2018-02-27T13:29:23.542Z,1.48
2018-02-27T13:31:51.994Z,1.08
2018-02-27T13:34:20.431Z,1.20
2018-02-27T13:36:48.890Z,0.90
2018-02-27T13:39:17.327Z,1.00
2018-02-27T13:41:45.799Z,1.25
2018-02-27T13:44:14.313Z,0.75
2018-02-27T13:46:42.816Z,1.10
2018-02-27T13:49:11.379Z,0.80
2018-02-27T13:51:40.860Z,0.93
2018-02-27T13:54:09.622Z,1.08
2018-02-27T13:56:38.159Z,0.80
2018-02-27T13:59:08.182Z,1.45
2018-02-27T14:01:36.663Z,1.20
2018-02-27T14:04:05.122Z,1.30
2018-02-27T14:06:33.625Z,1.48
2018-02-27T14:09:02.288Z,1.25
2018-02-27T14:11:31.134Z,1.30
2018-02-27T14:14:01.205Z,1.55
2018-02-27T14:16:29.679Z,1.20
2018-02-27T14:18:58.165Z,1.30
2018-02-27T14:21:26.854Z,1.20
2018-02-27T14:23:55.466Z,1.58
2018-02-27T14:26:23.891Z,1.95
2018-02-27T14:28:52.413Z,1.42
2018-02-27T14:31:20.877Z,1.75
2018-02-27T14:33:49.321Z,1.40
2018-02-27T14:36:17.801Z,1.92
2018-02-27T14:38:46.235Z,1.40
2018-02-27T14:41:14.641Z,1.87
2018-02-27T14:43:43.226Z,1.60
2018-02-27T14:46:11.705Z,1.45
2018-02-27T14:48:40.151Z,1.12
2018-02-27T14:51:08.704Z,2.17
2018-02-27T14:53:37.217Z,1.20
2018-02-27T14:56:05.974Z,1.12
2018-02-27T14:58:35.475Z,1.10
2018-02-27T15:01:03.987Z,1.20
2018-02-27T15:03:32.609Z,0.98
2018-02-27T15:06:01.559Z,1.55
2018-02-27T15:08:30.084Z,0.95
2018-02-27T15:10:58.530Z,1.02
2018-02-27T15:13:27.035Z,1.12
2018-02-27T15:15:55.474Z,1.55
2018-02-27T15:18:23.898Z,1.85
2018-02-27T15:20:52.491Z,1.17
2018-02-27T15:23:20.925Z,1.35
2018-02-27T15:25:49.354Z,1.50
2018-02-27T15:28:18.225Z,1.12
2018-02-27T15:30:46.646Z,1.55
2018-02-27T15:33:15.147Z,1.52
2018-02-27T15:35:44.000Z,1.45
2018-02-27T15:38:12.534Z,1.05
2018-02-27T15:40:41.050Z,1.40
2018-02-27T15:43:09.697Z,1.08
2018-02-27T15:45:38.144Z,1.60
2018-02-27T15:48:06.677Z,1.60
2018-02-27T15:50:35.413Z,1.87
2018-02-27T15:53:03.920Z,1.62
2018-02-27T15:55:33.382Z,1.42
2018-02-27T15:58:02.378Z,1.85
2018-02-27T16:00:33.524Z,2.20
2018-02-27T16:03:02.416Z,2.10
2018-02-27T16:05:35.391Z,2.25
2018-02-27T16:08:08.907Z,1.80
2018-02-27T16:10:37.522Z,2.20
2018-02-27T16:13:06.081Z,1.30
2018-02-27T16:15:34.859Z,2.80
2018-02-27T16:18:03.707Z,3.08
2018-02-27T16:20:32.422Z,2.60
2018-02-27T16:23:01.075Z,1.92
2018-02-27T16:25:31.557Z,2.10
2018-02-27T16:28:01.844Z,3.25
2018-02-27T16:30:32.282Z,2.72
2018-02-27T16:33:07.088Z,2.50
2018-02-27T16:35:35.608Z,1.92
2018-02-27T16:38:06.550Z,3.15
2018-02-27T16:40:36.368Z,2.55
2018-02-27T16:43:05.314Z,3.12
2018-02-27T16:45:34.699Z,3.00
2018-02-27T16:48:04.267Z,3.30
2018-02-27T16:50:34.302Z,2.75
2018-02-27T16:53:02.947Z,3.12
2018-02-27T16:55:33.792Z,2.90
2018-02-27T16:58:02.272Z,2.70
2018-02-27T17:00:30.818Z,2.45
2018-02-27T17:03:00.293Z,3.55
2018-02-27T17:05:28.822Z,2.05
2018-02-27T17:07:57.385Z,3.28
2018-02-27T17:10:26.115Z,2.42
2018-02-27T17:12:54.581Z,3.33
2018-02-27T17:15:23.142Z,2.67
2018-02-27T17:17:52.260Z,2.90
2018-02-27T17:20:20.739Z,1.80
2018-02-27T17:22:49.252Z,2.40
2018-02-27T17:25:17.741Z,1.67
2018-02-27T17:27:46.278Z,2.40
2018-02-27T17:30:14.746Z,2.62
2018-02-27T17:32:43.334Z,1.12
2018-02-27T17:35:11.768Z,2.20
2018-02-27T17:37:40.456Z,2.05
2018-02-27T17:40:09.827Z,1.52
2018-02-27T17:42:38.279Z,1.90
2018-02-27T17:45:06.739Z,2.17
2018-02-27T17:47:36.038Z,2.35
2018-02-27T17:50:04.621Z,1.70
2018-02-27T17:52:33.108Z,1.98
2018-02-27T17:55:02.716Z,2.20
2018-02-27T17:57:31.983Z,1.98
2018-02-27T18:00:00.598Z,2.30
2018-02-27T18:02:29.896Z,2.12
2018-02-27T18:04:58.414Z,2.33
2018-02-27T18:07:26.857Z,2.40
2018-02-27T18:09:55.377Z,2.55
2018-02-27T18:12:23.832Z,2.90
2018-02-27T18:14:52.359Z,2.00
2018-02-27T18:17:21.730Z,3.08
2018-02-27T18:19:50.224Z,1.85
2018-02-27T18:22:18.981Z,2.03
2018-02-27T18:24:47.589Z,2.05
2018-02-27T18:27:16.179Z,1.85
2018-02-27T18:29:44.682Z,2.22
2018-02-27T18:32:13.392Z,2.30
2018-02-27T18:34:41.826Z,1.73
2018-02-27T18:37:10.258Z,1.02
2018-02-27T18:39:38.911Z,2.10
2018-02-27T18:42:07.543Z,2.20
2018-02-27T18:44:36.346Z,6.43
2018-02-27T18:47:04.986Z,2.65
2018-02-27T18:49:33.445Z,2.45
2018-02-27T18:52:02.083Z,1.62
2018-02-27T18:54:30.902Z,2.17
2018-02-27T18:56:59.649Z,1.90
2018-02-27T18:59:28.194Z,1.52
2018-02-27T19:01:56.843Z,1.73
2018-02-27T19:04:25.447Z,1.60
2018-02-27T19:06:53.971Z,2.10
2018-02-27T19:09:23.151Z,1.95
2018-02-27T19:11:51.712Z,2.70
2018-02-27T19:14:20.336Z,1.67
2018-02-27T19:16:49.715Z,1.80
2018-02-27T19:19:18.223Z,2.35
2018-02-27T19:21:46.776Z,1.45
2018-02-27T19:24:15.275Z,2.72
2018-02-27T19:26:43.817Z,2.28
2018-02-27T19:29:12.325Z,1.62
2018-02-27T19:31:41.060Z,1.40
2018-02-27T19:34:09.546Z,1.50
2018-02-27T19:36:37.998Z,1.80
2018-02-27T19:39:07.415Z,2.80
2018-02-27T19:41:35.926Z,2.90
2018-02-27T19:44:04.702Z,2.40
2018-02-27T19:46:34.172Z,2.45
2018-02-27T19:49:02.871Z,2.75
2018-02-27T19:51:31.669Z,2.70
2018-02-27T19:54:00.930Z,2.87
2018-02-27T19:56:30.750Z,2.60
2018-02-27T19:58:59.344Z,2.65
2018-02-27T20:01:29.079Z,2.62
2018-02-27T20:03:59.115Z,2.10
2018-02-27T20:06:27.633Z,1.73
2018-02-27T20:08:56.636Z,2.50
2018-02-27T20:11:25.347Z,2.08
2018-02-27T20:13:54.634Z,3.45
2018-02-27T20:16:23.131Z,2.10
2018-02-27T20:18:51.682Z,2.92
2018-02-27T20:21:20.438Z,2.90
2018-02-27T20:23:55.034Z,1.75
2018-02-27T20:26:23.707Z,2.37
2018-02-27T20:28:57.918Z,2.03
2018-02-27T20:31:26.883Z,2.42
2018-02-27T20:33:55.452Z,2.22
2018-02-27T20:36:23.932Z,1.80
2018-02-27T20:38:58.011Z,2.35
2018-02-27T20:41:26.677Z,1.90
2018-02-27T20:43:55.201Z,2.20
2018-02-27T20:46:23.685Z,1.85
2018-02-27T20:48:53.670Z,2.37
2018-02-27T20:51:22.189Z,1.90
2018-02-27T20:53:50.746Z,2.47
2018-02-27T20:56:20.598Z,2.05
2018-02-27T20:58:49.387Z,2.17
2018-02-27T21:01:18.100Z,1.70
2018-02-27T21:03:48.057Z,2.25
2018-02-27T21:06:16.655Z,2.47
2018-02-27T21:08:45.092Z,1.90
2018-02-27T21:11:14.055Z,1.67
2018-02-27T21:13:42.593Z,2.10
2018-02-27T21:16:11.325Z,2.40
2018-02-27T21:18:39.881Z,1.33
2018-02-27T21:21:08.384Z,1.25
2018-02-27T21:23:37.052Z,1.60
2018-02-27T21:26:06.518Z,1.30
2018-02-27T21:28:35.348Z,2.22
2018-02-27T21:31:04.036Z,1.95
2018-02-27T21:33:33.029Z,1.55
2018-02-27T21:36:01.819Z,1.70
2018-02-27T21:38:30.287Z,2.03
2018-02-27T21:40:58.837Z,2.40
2018-02-27T21:43:27.426Z,2.40
2018-02-27T21:45:55.877Z,1.60
2018-02-27T21:48:24.432Z,1.70
2018-02-27T21:50:52.863Z,2.00
2018-02-27T21:53:21.405Z,1.58
2018-02-27T21:55:50.455Z,2.20
2018-02-27T21:58:18.888Z,2.08
2018-02-27T22:00:47.332Z,2.45
2018-02-27T22:03:16.104Z,3.12
2018-02-27T22:05:44.537Z,1.92
2018-02-27T22:08:12.984Z,2.12
2018-02-27T22:10:41.522Z,2.35
2018-02-27T22:13:10.072Z,2.10
2018-02-27T22:15:38.563Z,1.77
2018-02-27T22:18:07.725Z,2.28
2018-02-27T22:20:36.271Z,1.62
2018-02-27T22:23:05.179Z,1.40
2018-02-27T22:25:35.559Z,2.10
2018-02-27T22:28:04.696Z,2.75
2018-02-27T22:30:33.229Z,1.55
2018-02-27T22:33:02.900Z,2.20
2018-02-27T22:35:31.585Z,2.05
2018-02-27T22:38:00.080Z,2.50
2018-02-27T22:40:28.612Z,2.95
2018-02-27T22:42:57.131Z,2.37
2018-02-27T22:45:25.564Z,2.53
2018-02-27T22:47:54.668Z,2.70
2018-02-27T22:50:23.095Z,2.60
2018-02-27T22:52:51.594Z,1.95
2018-02-27T22:55:21.040Z,2.15
2018-02-27T22:57:49.459Z,2.10
2018-02-27T23:00:29.761Z,3.15
2018-02-27T23:02:58.300Z,2.60
2018-02-27T23:05:27.460Z,2.85
2018-02-27T23:07:56.388Z,2.42
2018-02-27T23:10:24.839Z,2.42
2018-02-27T23:12:53.264Z,1.98
2018-02-27T23:15:22.943Z,2.70
2018-02-27T23:17:51.373Z,2.60
2018-02-27T23:20:19.804Z,2.70
2018-02-27T23:22:48.519Z,2.97
2018-02-27T23:25:38.378Z,1.60
2018-02-27T23:28:08.497Z,2.50
2018-02-27T23:30:38.613Z,3.00
2018-02-27T23:33:09.823Z,2.97
2018-02-27T23:35:38.384Z,2.35
2018-02-27T23:38:06.997Z,2.37
2018-02-27T23:40:37.225Z,2.83
2018-02-27T23:43:05.950Z,2.10
2018-02-27T23:45:34.529Z,2.35
2018-02-27T23:48:03.175Z,2.03
2018-02-27T23:50:31.912Z,1.77
2018-02-27T23:53:00.367Z,1.90
2018-02-27T23:55:29.076Z,2.50
2018-02-27T23:57:57.510Z,2.28
